Latest Weather Observations for Mount Hotham Airport

IDV60801

Issued at 7:35 am EDT Saturday 1 November 2014 (issued every 30 minutes, with the page automatically refreshed every 10 minutes)

About weather observations | Map of weather stations | Latest weather observations for VIC | Other Formats
Station Details ID: 083055 Name: MOUNT HOTHAM AIRPORT Lat: -37.05 Lon: 147.33 Height: 1295.4 m
Data from the previous 72 hours. | See also: Recent months at Mount Hotham Airport
Date/Time
EDT
Temp
°C
App
Temp
°C
Dew
Point
Rel
Hum
%
Delta-T
°C
Wind Press
QNH
hPa
Press
MSL
hPa
Rain
since 9 am
mm
Dir
 
Spd
km/h
Gust
km/h
Spd
kts
Gust
kts
01/07:30am 15.4 7.0 5.6 52 5.1 NW 39 52 21 28 1002.4 - 0.0
01/07:00am 14.8 5.6 5.6 54 4.7 NW 43 63 23 34 1001.8 - 0.0
01/06:30am 15.0 5.8 5.5 53 4.8 NW 43 61 23 33 1002.4 - 0.0
01/06:00am 15.7 7.3 3.8 45 5.9 NW 37 57 20 31 1002.2 1000.9 0.0
01/05:30am 16.3 8.7 0.8 35 7.3 NW 30 52 16 28 1002.6 - 0.0
01/05:09am 16.2 8.9 0.3 34 7.4 NW 28 50 15 27 1002.6 - 0.0
01/05:00am 16.2 10.3 -0.5 32 7.6 NW 20 37 11 20 1002.7 - 0.0
01/04:32am 17.1 9.6 -1.1 29 8.2 NNW 28 46 15 25 1002.6 - 0.0
01/04:30am 17.1 9.3 -1.1 29 8.2 NNW 30 46 16 25 1002.6 - 0.0
01/04:20am 17.5 10.1 -0.7 29 8.3 NNW 28 48 15 26 1002.6 - 0.0
01/04:00am 18.1 12.3 -1.2 27 8.8 NNE 19 30 10 16 1002.7 - 0.0
01/03:30am 18.0 12.6 -1.3 27 8.8 NNW 17 33 9 18 1003.0 - 0.0
01/03:00am 17.8 13.2 -1.4 27 8.8 N 13 20 7 11 1003.5 1002.2 0.0
01/02:30am 18.2 12.2 -1.6 26 9.0 NNW 20 35 11 19 1003.9 - 0.0
01/02:00am 18.0 11.6 -1.8 26 8.9 NNW 22 35 12 19 1004.3 - 0.0
01/01:30am 18.2 11.4 -1.6 26 9.0 NNW 24 39 13 21 1005.2 - 0.0
01/01:00am 17.8 12.0 -1.4 27 8.7 NNW 19 35 10 19 1006.0 - 0.0
01/12:30am 17.7 12.0 -1.0 28 8.5 NNW 19 39 10 21 1006.8 - 0.0
01/12:00am 16.8 11.4 -1.3 29 8.2 NNW 17 26 9 14 1007.1 1007.4 0.0
 
Date/Time
EDT
Temp
°C
App
Temp
°C
Dew
Point
Rel
Hum
%
Delta-T
°C
Wind Press
QNH
hPa
Press
MSL
hPa
Rain
since 9 am
mm
Dir
 
Spd
km/h
Gust
km/h
Spd
kts
Gust
kts
31/11:30pm 17.2 11.5 -0.5 30 8.1 NNW 19 32 10 17 1007.6 - 0.0
31/11:00pm 16.2 11.0 0.3 34 7.4 NNW 17 32 9 17 1007.9 - 0.0
31/10:30pm 13.6 9.8 1.9 45 5.5 NW 11 19 6 10 1008.5 - 0.0
31/10:00pm 13.1 10.1 1.8 46 5.3 NW 7 9 4 5 1008.8 - 0.0
31/09:30pm 14.3 11.3 2.2 44 5.7 NW 7 15 4 8 1009.2 - 0.0
31/09:00pm 14.6 11.3 2.5 44 5.8 NW 9 13 5 7 1009.3 1009.6 0.0
31/08:30pm 15.4 12.4 2.2 41 6.3 NNW 7 11 4 6 1009.3 - 0.0
31/08:00pm 16.6 13.6 1.9 37 7.1 N 7 11 4 6 1009.5 - 0.0
31/07:30pm 17.1 13.5 2.7 38 7.0 NW 11 15 6 8 1009.7 - 0.0
31/07:00pm 19.1 13.9 2.5 33 8.2 NW 19 28 10 15 1009.6 - 0.0
31/06:30pm 19.9 13.3 2.3 31 8.7 NW 26 37 14 20 1010.0 - 0.0
31/06:00pm 20.3 14.6 3.1 32 8.7 NW 22 35 12 19 1010.3 1010.7 0.0
31/05:30pm 20.3 13.3 2.2 30 9.0 NW 28 41 15 22 1010.5 - 0.0
31/05:00pm 19.8 12.5 2.6 32 8.6 NW 30 43 16 23 1010.6 - 0.0
31/04:47pm 20.0 13.1 2.4 31 8.7 NNW 28 46 15 25 1010.8 - 0.0
31/04:30pm 21.4 15.1 3.6 31 9.1 WNW 26 33 14 18 1010.8 - 0.0
31/04:08pm 21.3 14.1 3.0 30 9.3 NW 30 50 16 27 1011.0 - 0.0
31/04:00pm 21.2 13.5 2.5 29 9.4 NNW 32 46 17 25 1011.1 - 0.0
31/03:30pm 21.3 13.7 3.0 30 9.3 NW 32 50 17 27 1011.4 - 0.0
31/03:24pm 21.1 14.2 2.4 29 9.4 NW 28 50 15 27 1011.4 - 0.0
31/03:00pm 21.3 15.4 4.0 32 8.9 WNW 24 28 13 15 1011.7 1012.1 0.0
31/02:39pm 20.6 13.2 2.0 29 9.2 NNW 30 50 16 27 1012.0 - 0.0
31/02:30pm 20.8 13.6 3.1 31 9.0 NW 30 46 16 25 1012.0 - 0.0
31/02:00pm 20.5 12.8 2.3 30 9.1 NW 32 50 17 27 1012.2 - 0.0
31/01:48pm 21.0 13.5 3.2 31 9.0 NW 32 50 17 27 1012.5 - 0.0
31/01:30pm 19.1 10.0 1.6 31 8.5 NW 39 50 21 27 1012.5 - 0.0
31/01:00pm 18.8 11.2 2.6 34 8.0 NW 32 54 17 29 1012.6 - 0.0
31/12:40pm 19.3 11.4 2.2 32 8.4 NW 33 57 18 31 1012.8 - 0.0
31/12:30pm 19.3 11.0 2.2 32 8.4 NW 35 50 19 27 1013.0 - 0.0
31/12:00pm 18.6 9.3 0.7 30 8.5 NW 39 61 21 33 1013.1 1013.6 0.0
31/11:50am 19.5 10.9 2.4 32 8.5 NW 37 56 20 30 1013.1 - 0.0
31/11:30am 18.4 10.3 1.0 31 8.3 NW 33 50 18 27 1013.4 - 0.0
31/11:05am 18.3 9.7 0.4 30 8.4 NW 35 54 19 29 1013.6 - 0.0
31/11:00am 18.2 9.2 -0.1 29 8.5 NW 37 54 20 29 1013.6 - 0.0
31/10:30am 17.8 9.7 0.0 30 8.3 NW 32 50 17 27 1013.9 - 0.0
31/10:00am 16.9 10.2 -0.8 30 8.1 NW 24 43 13 23 1014.4 - 0.0
31/09:30am 16.0 10.1 -2.0 29 7.9 NW 19 32 10 17 1014.5 - 0.0
31/09:00am 16.2 10.5 -0.9 31 7.7 NW 19 30 10 16 1014.8 1015.3 0.0
31/08:30am 15.1 9.2 -1.0 33 7.2 NW 20 33 11 18 1014.7 - 0.0
31/08:00am 14.0 7.4 -0.4 37 6.4 NW 24 37 13 20 1014.7 - 0.0
31/07:57am 13.9 6.4 -1.7 34 6.8 NW 28 37 15 20 1014.7 - 0.0
31/07:30am 12.3 8.9 -2.0 37 6.1 NW 6 11 3 6 1014.8 - 0.0
31/07:00am 11.5 6.7 -2.7 37 5.9 W 13 17 7 9 1014.5 - 0.0
31/06:30am 8.8 5.2 -4.0 40 5.0 NW 6 9 3 5 1014.6 - 0.0
31/06:00am 7.8 3.2 -4.0 43 4.6 NW 11 17 6 9 1014.5 1015.0 0.0
31/05:30am 7.0 3.2 -4.1 45 4.3 N 7 11 4 6 1014.0 - 0.0
31/05:00am 10.7 6.7 -5.7 31 6.3 NNE 7 11 4 6 1013.8 - 0.0
31/04:30am 9.9 5.7 -3.7 38 5.4 N 9 15 5 8 1013.7 - 0.0
31/04:00am 10.5 6.8 -2.8 39 5.5 NNE 7 13 4 7 1013.9 - 0.0
31/03:30am 7.2 3.7 -3.1 48 4.1 NW 6 7 3 4 1014.3 - 0.0
31/03:00am 9.1 5.6 -2.5 44 4.7 WNW 6 7 3 4 1014.5 1015.0 0.0
31/02:30am 5.4 1.3 -2.7 56 3.2 W 9 13 5 7 1014.7 - 0.0
31/02:00am 8.7 3.4 -3.2 43 4.8 NW 15 20 8 11 1015.1 - 0.0
31/01:30am 11.0 5.0 -2.8 38 5.7 NW 19 22 10 12 1015.2 - 0.0
31/01:00am 10.8 5.7 -1.6 42 5.3 NW 15 22 8 12 1015.4 - 0.0
31/12:30am 11.2 6.7 -0.6 44 5.1 NW 13 22 7 12 1015.9 - 0.0
31/12:00am 10.2 6.5 -0.3 48 4.6 NW 9 15 5 8 1015.9 1016.4 0.0
 
Date/Time
EDT
Temp
°C
App
Temp
°C
Dew
Point
Rel
Hum
%
Delta-T
°C
Wind Press
QNH
hPa
Press
MSL
hPa
Rain
since 9 am
mm
Dir
 
Spd
km/h
Gust
km/h
Spd
kts
Gust
kts
30/11:30pm 11.2 6.9 0.9 49 4.6 NW 13 26 7 14 1015.9 - 0.0
30/11:00pm 9.9 6.4 1.0 54 4.0 NNW 9 15 5 8 1016.2 - 0.0
30/10:30pm 8.9 4.8 2.0 62 3.1 NW 13 15 7 8 1016.3 - 0.0
30/10:00pm 8.1 4.3 1.7 64 2.9 WNW 11 15 6 8 1016.4 - 0.0
30/09:30pm 8.8 5.1 2.4 64 2.9 WNW 11 15 6 8 1016.5 - 0.0
30/09:00pm 9.5 5.8 2.4 61 3.3 NW 11 15 6 8 1016.5 1017.1 0.0
30/08:30pm 8.5 4.7 1.6 62 3.1 WNW 11 13 6 7 1016.5 - 0.0
30/08:00pm 10.0 6.3 2.4 59 3.5 WNW 11 15 6 8 1016.4 - 0.0
30/07:30pm 12.1 8.1 2.8 53 4.4 WNW 13 20 7 11 1016.2 - 0.0
30/07:00pm 14.6 9.9 3.1 46 5.6 WNW 17 22 9 12 1016.1 - 0.0
30/06:30pm 15.4 10.2 2.6 42 6.2 WNW 19 33 10 18 1015.9 - 0.0
30/06:00pm 16.2 10.8 2.6 40 6.6 WNW 20 26 11 14 1015.9 1016.4 0.0
30/05:30pm 16.5 10.4 2.5 39 6.8 WNW 24 35 13 19 1015.6 - 0.0
30/05:00pm 16.8 11.0 2.4 38 7.0 WNW 22 35 12 19 1015.4 - 0.0
30/04:30pm 17.1 10.9 2.3 37 7.2 WNW 24 35 13 19 1015.4 - 0.0
30/04:00pm 17.2 10.9 3.8 41 6.7 NW 26 37 14 20 1015.3 - 0.0
30/03:30pm 17.7 12.5 5.3 44 6.4 NW 22 37 12 20 1015.3 - 0.0
30/03:00pm 17.3 11.9 4.6 43 6.5 NW 22 33 12 18 1015.6 1016.2 0.0
30/02:30pm 16.8 10.9 3.8 42 6.5 NW 24 39 13 21 1016.1 - 0.0
30/02:00pm 17.0 11.2 2.2 37 7.2 WNW 22 35 12 19 1016.1 - 0.0
30/01:30pm 17.5 12.3 5.4 45 6.3 NW 22 33 12 18 1016.0 - 0.0
30/01:00pm 17.2 11.9 4.9 44 6.3 NW 22 30 12 16 1016.1 - 0.0
30/12:30pm 16.4 10.6 4.4 45 6.0 NW 24 35 13 19 1016.1 - 0.0
30/12:00pm 16.2 10.6 5.2 48 5.6 NW 24 37 13 20 1016.3 1016.9 0.0
30/11:30am 15.0 8.9 5.0 51 5.1 WNW 26 39 14 21 1016.4 - 0.0
30/11:00am 14.6 8.1 4.9 52 4.9 WNW 28 39 15 21 1016.5 - 0.0
30/10:30am 14.3 7.7 4.3 51 5.0 WNW 28 43 15 23 1016.9 - 0.0
30/10:00am 13.3 6.5 3.1 50 4.9 W 28 48 15 26 1016.8 - 0.0
30/09:30am 12.8 6.8 3.5 53 4.5 WNW 24 41 13 22 1016.5 - 0.0
30/09:08am 12.0 5.2 3.0 54 4.3 WNW 28 46 15 25 1016.4 - 0.0
30/09:00am 12.6 7.1 3.8 55 4.3 WNW 22 37 12 20 1016.7 1017.2 0.0
30/08:30am 11.9 4.8 3.4 56 4.1 WNW 30 46 16 25 1016.2 - 0.0
30/08:00am 11.4 4.6 3.2 57 3.9 WNW 28 41 15 22 1016.0 - 0.0
30/07:30am 10.7 5.1 3.3 60 3.5 WNW 22 39 12 21 1016.2 - 0.0
30/07:00am 9.8 4.1 3.1 63 3.1 WNW 22 33 12 18 1015.9 - 0.0
30/06:30am 9.0 2.5 2.8 65 2.9 WNW 26 37 14 20 1015.4 - 0.0
30/06:00am 9.0 2.1 2.8 65 2.9 WNW 28 37 15 20 1015.3 1015.8 0.0
30/05:30am 9.1 1.8 2.7 64 2.9 WNW 30 43 16 23 1015.2 - 0.0
30/05:00am 8.9 2.8 2.5 64 2.9 WNW 24 37 13 20 1015.3 - 0.0
30/04:30am 8.7 2.6 2.7 66 2.7 WNW 24 35 13 19 1015.3 - 0.0
30/04:00am 8.6 3.3 3.2 69 2.5 WNW 20 30 11 16 1015.3 - 0.0
30/03:30am 8.6 3.4 3.4 70 2.4 WNW 20 35 11 19 1015.5 - 0.0
30/03:00am 7.9 3.6 3.4 73 2.1 WNW 15 19 8 10 1015.6 1016.2 0.0
30/02:30am 5.7 2.0 2.5 80 1.4 NW 11 19 6 10 1016.0 - 0.0
30/02:00am 5.8 3.1 2.4 79 1.5 NE 6 7 3 4 1016.2 - 0.0
30/01:30am 6.7 4.0 3.7 81 1.4 NE 7 11 4 6 1016.5 - 0.0
30/01:00am 6.2 3.9 2.8 79 1.5 NE 4 7 2 4 1016.8 - 0.0
30/12:30am 5.6 3.5 4.1 90 0.7 N 4 7 2 4 1017.1 - 0.0
30/12:00am 4.7 2.8 2.9 88 0.8 W 2 4 1 2 1017.6 1018.1 0.0
 
Date/Time
EDT
Temp
°C
App
Temp
°C
Dew
Point
Rel
Hum
%
Delta-T
°C
Wind Press
QNH
hPa
Press
MSL
hPa
Rain
since 9 am
mm
Dir
 
Spd
km/h
Gust
km/h
Spd
kts
Gust
kts
29/11:30pm 5.4 3.8 2.6 82 1.2 CALM 0 6 0 3 1017.7 - 0.0
29/11:00pm 7.2 4.8 4.2 81 1.4 N 6 11 3 6 1017.8 - 0.0
29/10:30pm 7.3 4.7 4.4 82 1.4 NNW 7 13 4 7 1017.9 - 0.0
29/10:00pm 7.0 4.5 3.6 79 1.6 NW 6 9 3 5 1018.0 - 0.0
29/09:30pm 8.0 5.1 4.4 78 1.7 NNW 9 15 5 8 1018.1 - 0.0
29/09:00pm 8.6 4.9 4.2 74 2.1 NW 13 17 7 9 1018.0 1018.6 0.0
29/08:30pm 9.5 6.2 4.7 72 2.3 NW 11 19 6 10 1017.7 - 0.0
29/08:00pm 9.9 5.9 4.7 70 2.5 NW 15 20 8 11 1017.6 - 0.0
29/07:30pm 10.9 5.9 4.6 65 3.1 NW 20 30 11 16 1017.2 - 0.0
29/07:00pm 12.7 7.7 4.4 57 4.1 NW 20 28 11 15 1016.9 - 0.0
29/06:30pm 14.0 9.9 4.3 52 4.8 WNW 15 22 8 12 1016.8 - 0.0
29/06:00pm 14.9 9.9 3.7 47 5.5 WNW 19 26 10 14 1016.7 1017.2 0.0
29/05:30pm 15.5 11.4 4.2 47 5.6 WNW 15 24 8 13 1016.7 - 0.0
29/05:00pm 15.7 11.1 3.8 45 5.9 WNW 17 30 9 16 1016.5 - 0.0
29/04:30pm 15.9 11.3 3.7 44 6.0 W 17 26 9 14 1016.5 - 0.0
29/04:00pm 16.4 12.3 4.1 44 6.2 W 15 26 8 14 1016.5 - 0.0
29/03:30pm 16.9 13.3 5.2 46 6.0 W 13 24 7 13 1016.7 - 0.0
29/03:00pm 16.2 11.2 3.6 43 6.2 W 19 28 10 15 1016.9 1017.4 0.0
29/02:30pm 16.1 12.8 4.8 47 5.7 SW 11 19 6 10 1017.2 - 0.0
29/02:00pm 16.3 12.4 3.4 42 6.4 W 13 20 7 11 1017.3 - 0.0
29/01:30pm 16.7 11.9 2.7 39 6.8 WNW 17 24 9 13 1017.3 - 0.0
29/01:00pm 15.9 10.5 2.3 40 6.5 NW 20 28 11 15 1017.3 - 0.0
29/12:30pm 15.9 11.4 4.0 45 5.9 WSW 17 22 9 12 1017.7 - 0.0
29/12:00pm 15.1 10.5 1.3 39 6.5 W 15 22 8 12 1017.8 1018.4 0.0
29/11:30am 14.5 10.1 2.7 45 5.7 SW 15 20 8 11 1017.9 - 0.0
29/11:00am 14.2 10.5 2.1 44 5.7 W 11 20 6 11 1018.1 - 0.0
29/10:30am 12.9 9.3 0.6 43 5.6 WSW 9 20 5 11 1018.2 - 0.0
29/10:00am 12.5 8.9 0.3 43 5.5 S 9 17 5 9 1018.0 - 0.0
29/09:30am 11.9 7.9 0.7 46 5.0 WSW 11 19 6 10 1017.9 - 0.0
29/09:00am 11.1 8.1 0.5 48 4.7 W 6 9 3 5 1017.8 1018.4 0.0
29/08:30am 9.3 5.8 -1.7 46 4.6 NNW 7 9 4 5 1017.7 - 0.0
29/08:00am 8.1 4.9 -0.4 55 3.6 WNW 6 7 3 4 1017.4 - 0.0

Other Formats:

Comma delimited format used in spreadsheet applications
http://www.bom.gov.au/fwo/IDV60801/IDV60801.94905.axf

JavaScript Object Notation format (JSON) in row-major order
http://www.bom.gov.au/fwo/IDV60801/IDV60801.94905.json